Get Adobe Flash player

Seitennavigation

Webcam Flugfeld LOAR


Herzlich Willkommen am

Segelflugfeld Altlichtenwarth
 



Ausbildungswoche in LOAR

11. - 19. Juni 2016

 

Die Ausbildungswoche ist nicht nur für Flugschüler gedacht,
es besteht natürlich die Möglichkeit  Checkflüge zu absolvieren
 aber man kann auch die Gelegenheit nutzen um die Winden-
berechtigung aufrecht zu erhalten.

Anmeldung für die Ausbildungswoche bei Hrn. Horst Erb


 

Gäste online

Aktuell sind 3 Gäste und keine Mitglieder online

Sonnenaufgang Sonnenuntergang

Mon 27 Jun
Sunrise 04:50
Sunset 21:01

Aviation WX

[Quelle: ADDS]
METAR
LOWW 271050Z 31016KT 9999 FEW014 BKN018 BKN024 18/14 Q1018 NOSIG =
TAF
AMD LOWW 270630Z 2706/2812 30013KT 9000 -RA FEW010 SCT020 BKN030 TX25/2812Z TN16/2800Z TEMPO 2706/2708 30017KT 4000 RA BKN010 OVC020 FEW030TCU TEMPO 2708/2712 30017KT FM271200 31017KT 9999 FEW020 BKN060 TEMPO 2712/2717 31017G27KT BECMG 2717/2719 32013KT CAVOK =